createdAt,value
2017-08-01T00:00:07.277Z,7.80
2017-08-01T00:02:35.477Z,7.30
2017-08-01T00:05:02.899Z,8.00
2017-08-01T00:07:31.101Z,7.00
2017-08-01T00:09:58.536Z,6.23
2017-08-01T00:12:26.723Z,7.50
2017-08-01T00:14:54.148Z,7.00
2017-08-01T00:17:21.577Z,6.90
2017-08-01T00:19:49.024Z,6.80
2017-08-01T00:22:16.443Z,6.70
2017-08-01T00:24:44.640Z,6.20
2017-08-01T00:27:12.060Z,6.60
2017-08-01T00:29:40.265Z,7.00
2017-08-01T00:32:07.688Z,6.03
2017-08-01T00:34:35.126Z,6.37
2017-08-01T00:37:02.543Z,6.10
2017-08-01T00:39:29.967Z,5.80
2017-08-01T00:41:58.168Z,6.50
2017-08-01T00:44:25.700Z,6.40
2017-08-01T00:46:53.127Z,6.30
2017-08-01T00:49:20.572Z,6.73
2017-08-01T00:51:48.008Z,6.73
2017-08-01T00:54:15.519Z,7.03
2017-08-01T00:56:43.719Z,6.40
2017-08-01T00:59:11.136Z,4.83
2017-08-01T01:01:38.598Z,4.90
2017-08-01T01:04:06.029Z,5.60
2017-08-01T01:06:33.459Z,6.47
2017-08-01T01:09:00.888Z,4.63
2017-08-01T01:11:29.079Z,3.20
2017-08-01T01:13:56.505Z,2.80
2017-08-01T01:16:23.927Z,2.30
2017-08-01T01:18:51.347Z,2.20
2017-08-01T01:21:18.776Z,2.60
2017-08-01T01:23:46.964Z,3.67
2017-08-01T01:26:21.552Z,3.77
2017-08-01T01:28:48.982Z,2.53
2017-08-01T01:31:16.407Z,3.07
2017-08-01T01:33:43.828Z,1.90
2017-08-01T01:36:11.256Z,2.67
2017-08-01T01:38:38.675Z,1.93
2017-08-01T01:41:06.110Z,1.27
2017-08-01T01:43:33.528Z,1.20
2017-08-01T01:46:00.955Z,1.20
2017-08-01T01:48:28.375Z,1.20
2017-08-01T01:50:55.803Z,2.10
2017-08-01T01:53:23.227Z,1.30
2017-08-01T01:55:50.656Z,1.33
2017-08-01T01:58:18.079Z,1.23
2017-08-01T02:00:45.514Z,0.97
2017-08-01T02:03:12.935Z,1.10
2017-08-01T02:05:40.359Z,1.40
2017-08-01T02:08:07.783Z,1.50
2017-08-01T02:10:35.203Z,1.47
2017-08-01T02:13:02.629Z,1.37
2017-08-01T02:15:30.073Z,1.30
2017-08-01T02:17:57.490Z,1.37
2017-08-01T02:20:24.910Z,1.20
2017-08-01T02:22:52.336Z,1.30
2017-08-01T02:25:19.784Z,1.30
2017-08-01T02:27:47.199Z,1.47
2017-08-01T02:30:14.626Z,1.63
2017-08-01T02:32:42.052Z,1.40
2017-08-01T02:35:10.472Z,1.33
2017-08-01T02:37:37.891Z,1.00
2017-08-01T02:40:05.316Z,1.73
2017-08-01T02:42:32.741Z,1.67
2017-08-01T02:45:00.159Z,2.10
2017-08-01T02:47:27.583Z,1.40
2017-08-01T02:49:55.005Z,1.50
2017-08-01T02:52:22.436Z,1.77
2017-08-01T02:54:49.856Z,1.60
2017-08-01T02:57:17.281Z,1.80
2017-08-01T02:59:44.703Z,2.00
2017-08-01T03:02:12.148Z,1.60
2017-08-01T03:04:39.564Z,1.83
2017-08-01T03:07:07.756Z,1.97
2017-08-01T03:09:35.180Z,1.73
2017-08-01T03:12:03.384Z,2.20
2017-08-01T03:14:30.800Z,1.83
2017-08-01T03:16:58.235Z,2.50
2017-08-01T03:19:25.656Z,2.50
2017-08-01T03:21:53.075Z,2.43
2017-08-01T03:24:20.506Z,2.10
2017-08-01T03:26:47.923Z,2.47
2017-08-01T03:29:15.351Z,1.80
2017-08-01T03:31:43.535Z,2.10
2017-08-01T03:34:10.965Z,2.67
2017-08-01T03:36:38.383Z,2.50
2017-08-01T03:39:05.810Z,2.00
2017-08-01T03:41:33.996Z,1.90
2017-08-01T03:44:01.411Z,2.40
2017-08-01T03:46:28.839Z,2.07
2017-08-01T03:48:56.263Z,2.40
2017-08-01T03:51:23.682Z,2.40
2017-08-01T03:53:51.111Z,2.00
2017-08-01T03:56:18.533Z,1.77
2017-08-01T03:58:45.959Z,2.03
2017-08-01T04:01:18.122Z,2.87
2017-08-01T04:03:45.547Z,1.83
2017-08-01T04:06:13.028Z,2.57
2017-08-01T04:08:40.456Z,2.30
2017-08-01T04:11:07.884Z,2.60
2017-08-01T04:13:35.308Z,2.93
2017-08-01T04:16:02.759Z,2.00
2017-08-01T04:18:30.192Z,2.57
2017-08-01T04:20:57.618Z,2.80
2017-08-01T04:23:25.036Z,2.50
2017-08-01T04:25:52.479Z,2.20
2017-08-01T04:28:19.906Z,2.80
2017-08-01T04:30:47.340Z,2.07
2017-08-01T04:33:14.756Z,2.67
2017-08-01T04:35:42.207Z,2.50
2017-08-01T04:38:09.675Z,2.83
2017-08-01T04:40:37.099Z,2.50
2017-08-01T04:43:04.520Z,2.60
2017-08-01T04:45:31.939Z,2.30
2017-08-01T04:47:59.361Z,2.57
2017-08-01T04:50:26.784Z,2.37
2017-08-01T04:52:54.203Z,3.20
2017-08-01T04:55:21.626Z,2.20
2017-08-01T04:57:49.051Z,2.30
2017-08-01T05:00:16.474Z,2.70
2017-08-01T05:02:43.895Z,2.60
2017-08-01T05:05:11.323Z,3.20
2017-08-01T05:07:38.739Z,3.43
2017-08-01T05:10:06.168Z,3.17
2017-08-01T05:12:33.592Z,3.13
2017-08-01T05:15:01.019Z,2.97
2017-08-01T05:17:29.213Z,3.00
2017-08-01T05:19:57.399Z,3.10
2017-08-01T05:22:24.817Z,2.70
2017-08-01T05:24:52.243Z,3.20
2017-08-01T05:27:19.669Z,2.90
2017-08-01T05:29:47.130Z,2.40
2017-08-01T05:32:14.559Z,2.80
2017-08-01T05:34:42.743Z,2.53
2017-08-01T05:37:10.180Z,3.00
2017-08-01T05:39:37.615Z,2.67
2017-08-01T05:42:05.047Z,2.70
2017-08-01T05:44:32.471Z,2.70
2017-08-01T05:46:59.904Z,2.90
2017-08-01T05:49:27.319Z,2.80
2017-08-01T05:51:54.753Z,3.93
2017-08-01T05:54:22.203Z,3.67
2017-08-01T05:56:53.384Z,2.70
2017-08-01T05:59:20.911Z,3.93
2017-08-01T06:01:48.339Z,2.77
2017-08-01T06:04:16.536Z,3.10
2017-08-01T06:06:43.960Z,3.30
2017-08-01T06:09:11.380Z,3.43
2017-08-01T06:11:38.808Z,3.57
2017-08-01T06:14:06.289Z,3.13
2017-08-01T06:16:33.711Z,2.90
2017-08-01T06:19:01.892Z,3.10
2017-08-01T06:21:29.335Z,3.40
2017-08-01T06:23:56.739Z,3.87
2017-08-01T06:26:24.167Z,3.20
2017-08-01T06:28:51.587Z,3.80
2017-08-01T06:31:19.863Z,3.90
2017-08-01T06:33:47.288Z,5.03
2017-08-01T06:36:14.723Z,4.60
2017-08-01T06:38:42.146Z,3.23
2017-08-01T06:41:09.562Z,3.43
2017-08-01T06:43:37.047Z,4.10
2017-08-01T06:46:04.496Z,3.37
2017-08-01T06:48:31.931Z,3.10
2017-08-01T06:50:59.339Z,3.10
2017-08-01T06:53:26.763Z,3.23
2017-08-01T06:55:54.186Z,2.60
2017-08-01T06:58:21.684Z,2.93
2017-08-01T07:00:49.102Z,3.47
2017-08-01T07:03:16.531Z,2.93
2017-08-01T07:05:43.949Z,3.00
2017-08-01T07:08:11.375Z,2.67
2017-08-01T07:10:38.794Z,3.30
2017-08-01T07:13:06.227Z,3.17
2017-08-01T07:15:33.643Z,2.87
2017-08-01T07:18:01.075Z,2.20
2017-08-01T07:20:28.591Z,2.93
2017-08-01T07:22:56.023Z,2.50
2017-08-01T07:25:23.441Z,2.20
2017-08-01T07:27:50.871Z,2.70
2017-08-01T07:30:19.065Z,2.33
2017-08-01T07:32:46.493Z,2.50
2017-08-01T07:35:13.915Z,2.10
2017-08-01T07:37:41.343Z,2.23
2017-08-01T07:40:08.876Z,2.87
2017-08-01T07:42:37.067Z,2.33
2017-08-01T07:45:04.500Z,2.50
2017-08-01T07:47:31.919Z,3.10
2017-08-01T07:49:59.347Z,2.87
2017-08-01T07:52:26.872Z,2.70
2017-08-01T07:54:54.290Z,2.30
2017-08-01T07:57:21.715Z,2.63
2017-08-01T07:59:49.143Z,2.03
2017-08-01T08:02:17.336Z,2.10
2017-08-01T08:04:44.758Z,2.80
2017-08-01T08:07:12.181Z,2.30
2017-08-01T08:09:39.611Z,2.80
2017-08-01T08:12:07.035Z,2.10
2017-08-01T08:14:34.460Z,2.23
2017-08-01T08:17:01.884Z,2.67
2017-08-01T08:19:29.329Z,2.43
2017-08-01T08:21:56.753Z,2.67
2017-08-01T08:24:24.177Z,2.83
2017-08-01T08:26:51.599Z,3.30
2017-08-01T08:29:19.035Z,2.00
2017-08-01T08:31:46.455Z,1.90
2017-08-01T08:34:13.926Z,2.03
2017-08-01T08:36:41.363Z,2.83
2017-08-01T08:39:08.784Z,2.40
2017-08-01T08:41:36.215Z,2.80
2017-08-01T08:44:03.645Z,2.30
2017-08-01T08:46:31.068Z,2.40
2017-08-01T08:48:58.487Z,2.30
2017-08-01T08:51:25.911Z,1.93
2017-08-01T08:53:53.331Z,2.50
2017-08-01T08:56:20.759Z,2.10
2017-08-01T08:58:48.179Z,1.97
2017-08-01T09:01:15.611Z,2.50
2017-08-01T09:03:43.849Z,2.37
2017-08-01T09:06:11.275Z,2.00
2017-08-01T09:08:38.700Z,2.50
2017-08-01T09:11:06.128Z,2.20
2017-08-01T09:13:34.324Z,2.40
2017-08-01T09:16:01.755Z,2.20
2017-08-01T09:18:29.177Z,2.10
2017-08-01T09:20:56.655Z,1.97
2017-08-01T09:23:24.079Z,2.57
2017-08-01T09:25:51.512Z,2.13
2017-08-01T09:28:18.932Z,1.77
2017-08-01T09:30:46.351Z,2.20
2017-08-01T09:33:13.781Z,1.97
2017-08-01T09:35:41.199Z,2.50
2017-08-01T09:38:09.398Z,1.93
2017-08-01T09:40:36.822Z,2.27
2017-08-01T09:43:04.247Z,2.70
2017-08-01T09:45:31.671Z,2.10
2017-08-01T09:47:59.103Z,2.57
2017-08-01T09:50:26.519Z,2.40
2017-08-01T09:52:54.007Z,2.30
2017-08-01T09:55:21.425Z,2.80
2017-08-01T09:57:48.853Z,2.27
2017-08-01T10:00:16.272Z,2.77
2017-08-01T10:02:43.700Z,2.57
2017-08-01T10:05:11.123Z,2.20
2017-08-01T10:07:38.655Z,2.50
2017-08-01T10:10:06.835Z,2.50
2017-08-01T10:12:34.264Z,2.07
2017-08-01T10:15:01.691Z,2.40
2017-08-01T10:17:29.163Z,2.70
2017-08-01T10:19:56.583Z,2.63
2017-08-01T10:22:24.015Z,2.63
2017-08-01T10:24:51.440Z,2.47
2017-08-01T10:27:18.885Z,2.67
2017-08-01T10:29:46.307Z,2.30
2017-08-01T10:32:13.734Z,3.03
2017-08-01T10:34:41.165Z,3.30
2017-08-01T10:37:08.586Z,3.70
2017-08-01T10:39:36.015Z,2.50
2017-08-01T10:42:04.203Z,2.23
2017-08-01T10:44:31.627Z,2.70
2017-08-01T10:46:59.048Z,2.50
2017-08-01T10:49:26.477Z,2.30
2017-08-01T10:51:53.902Z,3.20
2017-08-01T10:54:21.324Z,2.80
2017-08-01T10:56:48.743Z,2.47
2017-08-01T10:59:16.171Z,2.70
2017-08-01T11:01:43.616Z,1.77
2017-08-01T11:04:11.040Z,2.83
2017-08-01T11:06:38.465Z,3.10
2017-08-01T11:09:05.887Z,3.13
2017-08-01T11:11:33.316Z,2.83
2017-08-01T11:14:00.736Z,2.87
2017-08-01T11:16:28.355Z,2.90
2017-08-01T11:18:55.827Z,2.80
2017-08-01T11:21:23.255Z,3.00
2017-08-01T11:23:50.679Z,2.70
2017-08-01T11:26:18.103Z,3.07
2017-08-01T11:28:45.527Z,2.40
2017-08-01T11:31:12.956Z,3.00
2017-08-01T11:33:40.375Z,2.50
2017-08-01T11:36:07.800Z,2.30
2017-08-01T11:38:35.230Z,2.63
2017-08-01T11:41:02.657Z,2.27
2017-08-01T11:43:30.132Z,1.97
2017-08-01T11:45:57.548Z,2.10
2017-08-01T11:48:25.005Z,2.13
2017-08-01T11:50:52.464Z,2.10
2017-08-01T11:53:19.883Z,1.77
2017-08-01T11:55:47.318Z,2.00
2017-08-01T11:58:14.731Z,2.33
2017-08-01T12:00:42.180Z,1.97
2017-08-01T12:03:09.598Z,2.50
2017-08-01T12:05:37.031Z,2.40
2017-08-01T12:08:04.457Z,1.83
2017-08-01T12:10:32.014Z,2.17
2017-08-01T12:12:59.464Z,2.30
2017-08-01T12:15:26.887Z,1.90
2017-08-01T12:17:54.319Z,2.57
2017-08-01T12:20:21.735Z,1.70
2017-08-01T12:22:49.163Z,2.33
2017-08-01T12:25:16.607Z,2.30
2017-08-01T12:27:44.028Z,2.00
2017-08-01T12:30:12.215Z,2.03
2017-08-01T12:32:39.648Z,1.77
2017-08-01T12:35:07.836Z,2.17
2017-08-01T12:37:35.259Z,2.00
2017-08-01T12:40:02.687Z,2.27
2017-08-01T12:42:30.115Z,1.80
2017-08-01T12:44:57.539Z,1.90
2017-08-01T12:47:24.991Z,1.63
2017-08-01T12:49:52.444Z,3.00
2017-08-01T12:52:19.875Z,1.87
2017-08-01T12:54:47.295Z,2.63
2017-08-01T12:57:14.719Z,2.10
2017-08-01T12:59:42.167Z,1.93
2017-08-01T13:02:09.602Z,1.73
2017-08-01T13:04:37.020Z,2.47
2017-08-01T13:07:04.454Z,1.90
2017-08-01T13:09:31.859Z,2.27
2017-08-01T13:11:59.288Z,2.33
2017-08-01T13:14:26.709Z,2.50
2017-08-01T13:16:54.132Z,2.93
2017-08-01T13:19:21.562Z,2.70
2017-08-01T13:21:48.987Z,2.67
2017-08-01T13:24:17.179Z,2.70
2017-08-01T13:26:45.364Z,2.93
2017-08-01T13:29:12.795Z,2.90
2017-08-01T13:31:40.983Z,3.30
2017-08-01T13:34:08.408Z,2.23
2017-08-01T13:36:37.675Z,3.13
2017-08-01T13:39:13.916Z,2.90
2017-08-01T13:41:41.331Z,3.50
2017-08-01T13:44:08.780Z,2.30
2017-08-01T13:46:36.208Z,2.73
2017-08-01T13:49:03.639Z,2.60
2017-08-01T13:51:31.056Z,2.23
2017-08-01T13:53:58.478Z,3.23
2017-08-01T13:56:26.958Z,2.47
2017-08-01T13:58:54.412Z,2.50
2017-08-01T14:01:21.823Z,3.30
2017-08-01T14:03:49.251Z,3.17
2017-08-01T14:06:16.683Z,2.97
2017-08-01T14:08:44.188Z,2.90
2017-08-01T14:11:11.607Z,3.07
2017-08-01T14:13:39.039Z,2.53
2017-08-01T14:16:06.460Z,2.83
2017-08-01T14:18:34.651Z,2.50
2017-08-01T14:21:02.072Z,3.07
2017-08-01T14:23:29.500Z,2.83
2017-08-01T14:25:56.917Z,3.30
2017-08-01T14:28:24.355Z,3.20
2017-08-01T14:30:51.807Z,2.90
2017-08-01T14:33:19.293Z,3.60
2017-08-01T14:35:46.704Z,3.17
2017-08-01T14:38:14.126Z,2.80
2017-08-01T14:40:41.651Z,2.80
2017-08-01T14:43:09.056Z,2.67
2017-08-01T14:45:36.483Z,2.37
2017-08-01T14:48:03.916Z,3.23
2017-08-01T14:50:32.114Z,2.87
2017-08-01T14:52:59.535Z,3.20
2017-08-01T14:55:26.963Z,3.13
2017-08-01T14:57:54.384Z,3.40
2017-08-01T15:00:21.812Z,3.00
2017-08-01T15:02:49.995Z,3.10
2017-08-01T15:05:17.432Z,2.80
2017-08-01T15:07:44.837Z,3.17
2017-08-01T15:10:12.262Z,3.13
2017-08-01T15:12:40.459Z,2.80
2017-08-01T15:15:07.885Z,3.07
2017-08-01T15:17:35.334Z,3.00
2017-08-01T15:20:02.765Z,3.23
2017-08-01T15:22:30.188Z,3.70
2017-08-01T15:24:57.616Z,3.47
2017-08-01T15:27:25.810Z,2.87
2017-08-01T15:29:53.247Z,3.37
2017-08-01T15:32:20.688Z,4.00
2017-08-01T15:34:48.120Z,3.47
2017-08-01T15:37:15.562Z,3.93
2017-08-01T15:39:43.059Z,4.43
2017-08-01T15:42:10.488Z,3.70
2017-08-01T15:44:37.919Z,2.97
2017-08-01T15:47:05.340Z,3.33
2017-08-01T15:49:33.525Z,4.20
2017-08-01T15:52:00.964Z,3.23
2017-08-01T15:54:28.416Z,3.30
2017-08-01T15:56:55.852Z,3.60
2017-08-01T15:59:23.288Z,3.83
2017-08-01T16:01:50.694Z,3.63
2017-08-01T16:04:18.119Z,3.77
2017-08-01T16:06:45.608Z,3.37
2017-08-01T16:09:13.033Z,4.37
2017-08-01T16:11:40.459Z,3.70
2017-08-01T16:14:07.879Z,3.10
2017-08-01T16:16:36.079Z,3.17
2017-08-01T16:19:03.535Z,3.63
2017-08-01T16:21:30.964Z,4.37
2017-08-01T16:23:59.241Z,3.27
2017-08-01T16:26:26.699Z,3.43
2017-08-01T16:28:54.892Z,4.97
2017-08-01T16:31:22.325Z,3.43
2017-08-01T16:33:49.782Z,3.60
2017-08-01T16:36:17.197Z,4.63
2017-08-01T16:38:44.632Z,3.67
2017-08-01T16:41:12.059Z,3.17
2017-08-01T16:43:40.264Z,3.80
2017-08-01T16:46:07.683Z,3.77
2017-08-01T16:48:35.107Z,3.90
2017-08-01T16:51:02.532Z,4.03
2017-08-01T16:53:29.961Z,4.30
2017-08-01T16:55:58.152Z,4.43
2017-08-01T16:58:25.577Z,3.73
2017-08-01T17:00:53.040Z,3.67
2017-08-01T17:03:20.459Z,3.53
2017-08-01T17:05:47.884Z,4.10
2017-08-01T17:08:15.311Z,3.97
2017-08-01T17:10:43.503Z,4.00
2017-08-01T17:13:10.932Z,3.47
2017-08-01T17:15:38.395Z,3.53
2017-08-01T17:18:05.856Z,3.60
2017-08-01T17:20:34.046Z,3.80
2017-08-01T17:23:02.244Z,2.90
2017-08-01T17:25:29.675Z,3.87
2017-08-01T17:27:57.100Z,4.00
2017-08-01T17:30:24.532Z,3.57
2017-08-01T17:32:51.984Z,4.20
2017-08-01T17:35:19.408Z,4.07
2017-08-01T17:37:46.948Z,3.50
2017-08-01T17:40:14.379Z,4.33
2017-08-01T17:42:41.847Z,2.67
2017-08-01T17:45:09.283Z,4.27
2017-08-01T17:47:36.773Z,3.50
2017-08-01T17:50:04.199Z,3.67
2017-08-01T17:52:31.689Z,3.60
2017-08-01T17:54:59.116Z,3.47
2017-08-01T17:57:26.535Z,4.63
2017-08-01T17:59:54.984Z,4.10
2017-08-01T18:02:22.443Z,3.00
2017-08-01T18:04:53.800Z,3.83
2017-08-01T18:07:22.705Z,3.63
2017-08-01T18:09:50.883Z,3.13
2017-08-01T18:12:18.307Z,3.37
2017-08-01T18:14:46.528Z,3.57
2017-08-01T18:17:13.935Z,3.63
2017-08-01T18:19:42.135Z,4.10
2017-08-01T18:22:09.559Z,4.37
2017-08-01T18:24:36.991Z,4.23
2017-08-01T18:27:04.416Z,4.10
2017-08-01T18:29:32.855Z,3.90
2017-08-01T18:32:00.276Z,3.80
2017-08-01T18:34:27.725Z,3.90
2017-08-01T18:36:55.146Z,3.30
2017-08-01T18:39:22.599Z,3.70
2017-08-01T18:41:50.798Z,4.23
2017-08-01T18:44:18.207Z,3.93
2017-08-01T18:46:45.652Z,4.10
2017-08-01T18:49:13.059Z,4.17
2017-08-01T18:51:40.491Z,3.80
2017-08-01T18:54:08.683Z,3.40
2017-08-01T18:56:36.147Z,4.07
2017-08-01T18:59:03.567Z,3.50
2017-08-01T19:01:30.995Z,4.43
2017-08-01T19:03:58.415Z,3.40
2017-08-01T19:06:25.863Z,4.27
2017-08-01T19:08:53.284Z,4.00
2017-08-01T19:11:20.716Z,3.80
2017-08-01T19:13:48.145Z,3.77
2017-08-01T19:16:15.573Z,3.90
2017-08-01T19:18:43.760Z,3.90
2017-08-01T19:21:11.956Z,3.97
2017-08-01T19:23:39.379Z,4.20
2017-08-01T19:26:07.579Z,3.73
2017-08-01T19:28:34.998Z,4.77
2017-08-01T19:31:02.427Z,5.03
2017-08-01T19:33:29.872Z,3.37
2017-08-01T19:35:57.327Z,4.63
2017-08-01T19:38:24.751Z,4.60
2017-08-01T19:40:52.183Z,5.10
2017-08-01T19:43:19.619Z,4.63
2017-08-01T19:45:47.052Z,4.87
2017-08-01T19:48:15.534Z,4.67
2017-08-01T19:50:42.932Z,4.63
2017-08-01T19:53:10.371Z,4.53
2017-08-01T19:55:37.792Z,4.20
2017-08-01T19:58:05.219Z,5.50
2017-08-01T20:00:33.444Z,4.87
2017-08-01T20:03:00.939Z,4.83
2017-08-01T20:05:29.127Z,4.83
2017-08-01T20:07:56.555Z,3.90
2017-08-01T20:10:23.981Z,4.37
2017-08-01T20:12:51.411Z,5.40
2017-08-01T20:15:18.822Z,5.03
2017-08-01T20:17:46.250Z,4.50
2017-08-01T20:20:13.671Z,5.37
2017-08-01T20:22:41.102Z,4.83
2017-08-01T20:25:08.526Z,5.30
2017-08-01T20:27:35.951Z,5.03
2017-08-01T20:30:03.480Z,5.00
2017-08-01T20:32:31.676Z,5.07
2017-08-01T20:34:59.204Z,4.30
2017-08-01T20:37:26.636Z,5.20
2017-08-01T20:39:54.072Z,5.30
2017-08-01T20:42:21.487Z,4.87
2017-08-01T20:44:49.691Z,4.30
2017-08-01T20:47:17.114Z,5.20
2017-08-01T20:49:45.320Z,5.60
2017-08-01T20:52:12.846Z,5.77
2017-08-01T20:54:40.267Z,4.60
2017-08-01T20:57:07.687Z,5.70
2017-08-01T20:59:35.111Z,4.60
2017-08-01T21:02:02.551Z,4.60
2017-08-01T21:04:30.028Z,5.30
2017-08-01T21:06:58.215Z,5.47
2017-08-01T21:09:26.427Z,4.67
2017-08-01T21:11:53.851Z,7.10
2017-08-01T21:14:22.049Z,6.20
2017-08-01T21:16:49.563Z,5.20
2017-08-01T21:19:16.995Z,5.47
2017-08-01T21:21:44.424Z,5.40
2017-08-01T21:24:11.843Z,4.77
2017-08-01T21:26:40.035Z,6.50
2017-08-01T21:29:07.459Z,5.70
2017-08-01T21:31:34.880Z,4.90
2017-08-01T21:34:02.307Z,4.80
2017-08-01T21:36:29.731Z,4.80
2017-08-01T21:38:57.164Z,4.93
2017-08-01T21:41:24.594Z,5.30
2017-08-01T21:43:52.007Z,5.00
2017-08-01T21:46:20.208Z,5.37
2017-08-01T21:48:47.631Z,4.80
2017-08-01T21:51:15.067Z,5.80
2017-08-01T21:53:42.499Z,4.90
2017-08-01T21:56:09.923Z,5.60
2017-08-01T21:58:37.355Z,5.83
2017-08-01T22:01:04.791Z,5.67
2017-08-01T22:03:32.232Z,5.80
2017-08-01T22:05:59.660Z,7.30
2017-08-01T22:08:27.084Z,6.83
2017-08-01T22:10:54.516Z,6.33
2017-08-01T22:13:21.936Z,5.90
2017-08-01T22:15:49.367Z,5.63
2017-08-01T22:18:17.559Z,6.47
2017-08-01T22:20:44.992Z,6.60
2017-08-01T22:23:13.260Z,6.60
2017-08-01T22:25:40.683Z,6.27
2017-08-01T22:28:08.171Z,7.20
2017-08-01T22:30:35.599Z,6.87
2017-08-01T22:33:03.028Z,6.40
2017-08-01T22:35:30.451Z,6.00
2017-08-01T22:37:58.639Z,5.83
2017-08-01T22:40:26.075Z,6.33
2017-08-01T22:42:53.496Z,6.17
2017-08-01T22:45:20.920Z,5.67
2017-08-01T22:47:48.360Z,6.00
2017-08-01T22:50:16.547Z,6.07
2017-08-01T22:52:43.975Z,5.60
2017-08-01T22:55:11.396Z,6.90
2017-08-01T22:57:38.836Z,6.43
2017-08-01T23:00:06.264Z,6.07
2017-08-01T23:02:33.699Z,7.20
2017-08-01T23:05:01.895Z,5.67
2017-08-01T23:07:29.325Z,5.77
2017-08-01T23:09:56.744Z,5.50
2017-08-01T23:12:24.175Z,6.20
2017-08-01T23:14:51.599Z,6.47
2017-08-01T23:17:19.806Z,5.80
2017-08-01T23:19:47.226Z,6.00
2017-08-01T23:22:14.660Z,6.23
2017-08-01T23:24:42.079Z,6.80
2017-08-01T23:27:09.512Z,6.10
2017-08-01T23:29:37.703Z,5.80
2017-08-01T23:32:05.131Z,6.10
2017-08-01T23:34:33.323Z,6.10
2017-08-01T23:37:00.751Z,5.87
2017-08-01T23:39:28.181Z,5.67
2017-08-01T23:41:55.615Z,6.60
2017-08-01T23:44:23.035Z,6.27
2017-08-01T23:46:50.483Z,5.90
2017-08-01T23:49:17.903Z,5.97
2017-08-01T23:51:45.327Z,5.20
2017-08-01T23:54:12.764Z,5.67
2017-08-01T23:56:40.944Z,5.53
2017-08-01T23:59:08.375Z,6.20
